Terminal Aerodrome Forecast
Issued by NWS Greer, SC

Home | Current Version | Previous Version | Text Only | Print | Product List | Glossary On
Versions: 1 2 3 4 5 6 7 8 9 10 11 12 13 14 15 16 17 18 19 20 21 22 23 24 25 26 27 28 29 30 31 32 33 34 35 36 37 38 39 40 41 42 43 44 45 46
000
FTUS42 KGSP 162000 AAA
TAFAVL
TAF AMD
KAVL 162039Z 1621/1718 34005KT P6SM VCTS BKN035CB
      TEMPO 1621/1624 VRB10G20KT 4SM TSRA BKN025CB
     FM170000 32005KT P6SM SCT035
     FM170300 33003KT 4SM BR BKN012
      TEMPO 1708/1712 1/2SM FG BKN009
     FM171200 33004KT P6SM BKN024
     FM171500 34008KT P6SM SCT250=

USA.gov is the U.S. government's official web portal to all federal, state and local government web resources and services.